Time;durP1;ratioP1;P1;durP2;ratioP2;P2;SDS_P1;SDS_P2;PMS_P1;PMS_P2;Temp;Humidity;BMP_temperature;BMP_pressure;BME280_temperature;BME280_humidity;BME280_pressure;Samples;Min_cycle;Max_cycle;Signal;HPM_P1;HPM_P2
2020/12/31 00:01:28;;;;;;;27.95;13.10;;;-0.60;99.90;;;;;;5051256;28;20032;-91
2020/12/31 00:03:54;;;;;;;34.33;13.48;;;-0.60;99.90;;;;;;5029506;28;20406;-92
2020/12/31 00:06:21;;;;;;;22.70;10.93;;;-0.50;99.90;;;;;;5038986;28;20048;-93
2020/12/31 00:08:48;;;;;;;37.25;14.05;;;-0.50;99.90;;;;;;5041093;28;20061;-91
2020/12/31 00:11:13;;;;;;;29.23;13.25;;;-0.50;99.90;;;;;;5057527;28;20029;-92
2020/12/31 00:13:40;;;;;;;33.20;14.07;;;-0.50;99.90;;;;;;5061307;28;20023;-92
2020/12/31 00:16:06;;;;;;;40.15;14.40;;;-0.50;99.90;;;;;;5060351;28;20028;-91
2020/12/31 00:18:31;;;;;;;33.38;13.93;;;-0.60;99.90;;;;;;5060500;28;20034;-91
2020/12/31 00:20:57;;;;;;;28.05;12.07;;;-0.60;99.90;;;;;;5059874;28;20060;-90
2020/12/31 00:23:23;;;;;;;28.50;11.98;;;-0.60;99.90;;;;;;5060424;28;20473;-91
2020/12/31 00:25:51;;;;;;;32.53;13.13;;;-0.50;99.90;;;;;;5045848;28;20390;-91
2020/12/31 00:28:18;;;;;;;30.63;12.82;;;-0.50;99.90;;;;;;5037055;28;20026;-91
2020/12/31 00:30:45;;;;;;;32.05;11.73;;;-0.60;99.90;;;;;;5040465;28;20119;-92
2020/12/31 00:33:15;;;;;;;32.47;12.93;;;-0.70;99.90;;;;;;5045251;28;20068;-91
2020/12/31 00:35:43;;;;;;;33.25;12.98;;;-0.70;99.90;;;;;;5036286;28;20018;-91
2020/12/31 00:38:10;;;;;;;24.88;10.88;;;-0.80;99.90;;;;;;5037128;28;20029;-92
2020/12/31 00:40:36;;;;;;;24.95;10.75;;;-0.90;99.90;;;;;;5038499;28;20057;-92
2020/12/31 00:43:03;;;;;;;29.98;11.23;;;-0.90;99.90;;;;;;5036337;28;20072;-92
2020/12/31 00:45:29;;;;;;;26.33;11.13;;;-0.90;99.90;;;;;;5036493;28;20421;-91
2020/12/31 00:47:55;;;;;;;26.42;10.98;;;-1.00;99.90;;;;;;5036180;28;20125;-92
2020/12/31 00:50:23;;;;;;;25.80;10.50;;;-1.00;99.90;;;;;;5035992;28;20091;-92
2020/12/31 00:52:50;;;;;;;26.95;11.02;;;-1.00;99.90;;;;;;5035846;28;20391;-92
2020/12/31 00:55:16;;;;;;;30.42;11.23;;;-1.00;99.90;;;;;;5036115;28;20061;-92
2020/12/31 00:57:42;;;;;;;24.33;10.55;;;-1.00;99.90;;;;;;5037371;28;20117;-92
2020/12/31 01:00:09;;;;;;;26.05;9.60;;;-1.00;99.90;;;;;;5036472;28;20077;-92
2020/12/31 01:02:35;;;;;;;34.60;11.57;;;-1.10;99.90;;;;;;5035941;28;20120;-91
2020/12/31 01:05:01;;;;;;;23.90;10.05;;;-1.20;99.90;;;;;;5035883;28;20049;-92
2020/12/31 01:07:26;;;;;;;28.83;11.63;;;-1.20;99.90;;;;;;5054076;28;20024;-91
2020/12/31 01:09:52;;;;;;;24.40;9.85;;;-1.30;99.90;;;;;;5059233;28;20143;-91
2020/12/31 01:12:18;;;;;;;22.65;10.13;;;-1.30;99.90;;;;;;5058807;28;20033;-92
2020/12/31 01:14:43;;;;;;;26.25;9.68;;;-1.40;99.90;;;;;;5059166;28;20058;-93
2020/12/31 01:17:09;;;;;;;21.63;9.13;;;-1.50;99.90;;;;;;5060324;28;20024;-91
2020/12/31 01:19:34;;;;;;;20.70;9.02;;;-1.40;99.90;;;;;;5065607;28;20020;-92
2020/12/31 01:22:00;;;;;;;29.77;11.60;;;-1.40;99.90;;;;;;5076676;28;20032;-91
2020/12/31 01:24:26;;;;;;;35.17;13.60;;;-1.40;99.90;;;;;;5072219;28;20088;-92
2020/12/31 01:26:51;;;;;;;39.80;13.75;;;-1.50;99.90;;;;;;5060753;28;20037;-92
2020/12/31 01:29:17;;;;;;;30.70;13.18;;;-1.60;99.90;;;;;;5060106;28;20029;-91
2020/12/31 01:31:49;;;;;;;26.52;10.00;;;-1.60;99.90;;;;;;5059518;28;20057;-90
2020/12/31 01:34:15;;;;;;;20.73;8.30;;;-1.60;99.90;;;;;;5059126;28;20158;-92
2020/12/31 01:36:41;;;;;;;20.95;8.02;;;-1.60;99.90;;;;;;5059301;28;20485;-92
2020/12/31 01:39:07;;;;;;;24.85;8.25;;;-1.60;99.90;;;;;;5058574;28;20035;-92
2020/12/31 01:41:32;;;;;;;25.58;7.90;;;-1.70;99.90;;;;;;5058442;28;20028;-91
2020/12/31 01:44:02;;;;;;;20.88;8.80;;;-1.70;99.90;;;;;;5058586;28;20402;-91
2020/12/31 01:46:32;;;;;;;18.83;8.05;;;-1.80;99.90;;;;;;5058688;28;20027;-92
2020/12/31 01:48:58;;;;;;;27.15;9.55;;;-1.80;99.90;;;;;;5058517;28;20115;-92
2020/12/31 01:51:24;;;;;;;20.20;8.00;;;-1.90;99.90;;;;;;5058294;28;20108;-91
2020/12/31 01:53:56;;;;;;;28.98;8.95;;;-1.90;99.90;;;;;;5058313;28;20074;-91
2020/12/31 01:56:33;;;;;;;23.65;8.30;;;-1.90;99.90;;;;;;5076529;28;20107;-92
2020/12/31 01:58:59;;;;;;;20.65;7.60;;;-1.90;99.90;;;;;;5058118;28;20078;-91
2020/12/31 02:01:26;;;;;;;21.25;8.18;;;-1.90;99.90;;;;;;5058088;28;20536;-91
2020/12/31 02:03:53;;;;;;;19.42;7.30;;;-1.80;99.90;;;;;;5052905;28;20037;-91
2020/12/31 02:06:21;;;;;;;18.98;7.32;;;-1.80;99.90;;;;;;5056399;28;20017;-91
2020/12/31 02:08:47;;;;;;;22.70;7.78;;;-1.80;99.90;;;;;;5057859;28;20151;-91
2020/12/31 02:11:15;;;;;;;25.23;8.15;;;-1.80;99.90;;;;;;5057909;28;20031;-91
2020/12/31 02:13:45;;;;;;;24.80;9.07;;;-1.80;99.90;;;;;;5057652;28;20507;-92
2020/12/31 02:16:19;;;;;;;22.17;8.68;;;-1.90;99.90;;;;;;5057998;28;20028;-93
2020/12/31 02:18:59;;;;;;;21.58;7.82;;;-1.90;99.90;;;;;;5056534;28;20063;-92
2020/12/31 02:21:32;;;;;;;26.52;8.57;;;-2.00;99.90;;;;;;5057153;28;20068;-91
2020/12/31 02:23:59;;;;;;;19.00;7.68;;;-2.00;99.90;;;;;;5057481;28;20037;-92
2020/12/31 02:26:30;;;;;;;27.92;9.88;;;-2.00;99.90;;;;;;5057123;28;20473;-92
2020/12/31 02:28:56;;;;;;;22.50;7.97;;;-2.10;99.90;;;;;;5074890;28;20052;-92
2020/12/31 02:31:23;;;;;;;26.02;8.95;;;-2.10;99.90;;;;;;5056470;28;20047;-92
2020/12/31 02:33:54;;;;;;;26.42;7.65;;;-2.10;99.90;;;;;;5057314;28;20024;-93
2020/12/31 02:36:22;;;;;;;21.15;7.72;;;-2.10;99.90;;;;;;5056884;28;20028;-92
2020/12/31 02:38:48;;;;;;;18.90;6.97;;;-2.10;99.90;;;;;;5057223;28;20100;-92
2020/12/31 02:41:14;;;;;;;20.33;6.55;;;-2.10;99.90;;;;;;5056882;28;20109;-93
2020/12/31 02:43:40;;;;;;;17.63;5.90;;;-2.10;99.90;;;;;;5056463;28;20034;-92
2020/12/31 02:46:07;;;;;;;16.65;6.10;;;-2.10;99.90;;;;;;5057157;28;20021;-92
2020/12/31 02:48:33;;;;;;;13.50;5.60;;;-2.10;99.90;;;;;;5057215;28;20040;-92
2020/12/31 02:50:59;;;;;;;20.13;5.90;;;-2.00;99.90;;;;;;5056639;28;20021;-91
2020/12/31 02:53:24;;;;;;;17.63;5.80;;;-2.00;99.90;;;;;;5056624;28;20437;-92
2020/12/31 02:55:50;;;;;;;14.50;6.32;;;-1.90;99.90;;;;;;5074083;28;20115;-92
2020/12/31 02:58:16;;;;;;;16.05;6.10;;;-1.90;99.90;;;;;;5056052;28;20116;-93
2020/12/31 03:00:42;;;;;;;16.02;5.35;;;-1.80;99.90;;;;;;5056318;28;20020;-92
2020/12/31 03:03:08;;;;;;;17.70;5.85;;;-1.80;99.90;;;;;;5056535;28;20371;-91
2020/12/31 03:05:34;;;;;;;18.45;6.28;;;-1.80;99.90;;;;;;5055863;28;20078;-93
2020/12/31 03:07:59;;;;;;;14.35;5.60;;;-1.80;99.90;;;;;;5056541;28;20485;-92
2020/12/31 03:10:25;;;;;;;16.40;5.40;;;-1.80;99.90;;;;;;5056195;28;20078;-92
2020/12/31 03:12:51;;;;;;;19.85;6.47;;;-1.80;99.90;;;;;;5055908;28;20056;-92
2020/12/31 03:15:19;;;;;;;26.10;8.45;;;-1.90;99.90;;;;;;5056240;28;20098;-91
2020/12/31 03:17:45;;;;;;;25.70;9.35;;;-1.90;99.90;;;;;;5055933;28;20024;-92
2020/12/31 03:20:10;;;;;;;27.42;10.18;;;-2.00;99.90;;;;;;5056165;28;20023;-90
2020/12/31 03:22:36;;;;;;;18.08;7.43;;;-2.10;99.90;;;;;;5056033;28;20063;-92
2020/12/31 03:25:03;;;;;;;24.40;8.52;;;-2.20;99.90;;;;;;5055976;28;20025;-92
2020/12/31 03:27:28;;;;;;;21.75;7.15;;;-2.20;99.90;;;;;;5055713;28;20147;-91
2020/12/31 03:29:54;;;;;;;26.33;9.48;;;-2.30;99.90;;;;;;5055621;28;20119;-92
2020/12/31 03:32:19;;;;;;;27.17;8.75;;;-2.30;99.90;;;;;;5055899;28;20049;-93
2020/12/31 03:34:45;;;;;;;20.42;7.72;;;-2.30;99.90;;;;;;5056133;28;20036;-93
2020/12/31 03:37:11;;;;;;;24.35;7.32;;;-2.30;99.90;;;;;;5055815;28;20039;-92
2020/12/31 03:39:37;;;;;;;25.40;8.57;;;-2.20;99.90;;;;;;5055502;28;20497;-92
2020/12/31 03:42:03;;;;;;;25.10;8.80;;;-2.30;99.90;;;;;;5055603;28;20112;-92
2020/12/31 03:44:29;;;;;;;22.15;8.88;;;-2.40;99.90;;;;;;5055641;28;20104;-92
2020/12/31 03:46:55;;;;;;;24.58;8.23;;;-2.40;99.90;;;;;;5055892;28;20028;-91
2020/12/31 03:49:20;;;;;;;22.48;9.18;;;-2.40;99.90;;;;;;5055365;28;20473;-91
2020/12/31 03:51:46;;;;;;;26.08;9.57;;;-2.50;99.90;;;;;;5055046;28;20025;-92
2020/12/31 03:54:11;;;;;;;19.48;7.25;;;-2.50;99.90;;;;;;5054972;28;20460;-92
2020/12/31 03:56:37;;;;;;;21.00;7.93;;;-2.50;99.90;;;;;;5054807;28;20435;-92
2020/12/31 03:59:04;;;;;;;23.85;7.63;;;-2.50;99.90;;;;;;5054918;28;20021;-92
2020/12/31 04:01:33;;;;;;;20.55;7.63;;;-2.40;99.90;;;;;;5054395;28;20032;-92
2020/12/31 04:03:59;;;;;;;17.80;6.35;;;-2.40;99.90;;;;;;5055019;28;20028;-92
2020/12/31 04:06:26;;;;;;;21.58;6.35;;;-2.30;99.90;;;;;;5037468;28;20025;-91
2020/12/31 04:08:52;;;;;;;17.33;5.88;;;-2.20;99.90;;;;;;5034733;28;20029;-93
2020/12/31 04:11:18;;;;;;;19.95;6.78;;;-2.10;99.90;;;;;;5034823;28;20501;-92
2020/12/31 04:13:43;;;;;;;15.82;6.03;;;-2.10;99.90;;;;;;5035136;28;20505;-92
2020/12/31 04:16:09;;;;;;;18.23;6.40;;;-2.10;99.90;;;;;;5035520;28;20028;-91
2020/12/31 04:18:35;;;;;;;16.08;6.22;;;-2.00;99.90;;;;;;5035905;28;20029;-91
2020/12/31 04:21:01;;;;;;;19.58;6.18;;;-1.90;99.90;;;;;;5035735;28;20051;-91
2020/12/31 04:23:27;;;;;;;16.55;7.05;;;-1.90;99.90;;;;;;5035385;28;20037;-92
2020/12/31 04:25:53;;;;;;;22.88;7.00;;;-1.80;99.90;;;;;;5035243;28;20032;-92
2020/12/31 04:28:18;;;;;;;19.92;7.18;;;-1.80;99.90;;;;;;5035634;28;20025;-92
2020/12/31 04:30:48;;;;;;;21.15;8.02;;;-1.80;99.90;;;;;;5035426;28;20051;-91
2020/12/31 04:33:15;;;;;;;24.92;7.70;;;-1.70;99.90;;;;;;5035394;28;20079;-93
2020/12/31 04:35:41;;;;;;;20.73;7.38;;;-1.70;99.90;;;;;;5035571;28;20521;-92
2020/12/31 04:38:06;;;;;;;20.10;7.07;;;-1.70;99.90;;;;;;5035451;28;20025;-89
2020/12/31 04:40:33;;;;;;;21.80;6.78;;;-1.70;99.90;;;;;;5036156;28;20068;-91
2020/12/31 04:42:59;;;;;;;18.10;6.22;;;-1.70;99.90;;;;;;5038464;28;20036;-92
2020/12/31 04:45:26;;;;;;;21.52;8.52;;;-1.80;99.90;;;;;;5040748;28;20029;-92
2020/12/31 04:48:20;;;;;;;24.90;9.60;;;-1.70;99.90;;;;;;5042131;28;20082;-92
2020/12/31 04:50:48;;;;;;;21.42;6.88;;;-1.70;99.90;;;;;;5040470;28;20544;-91
2020/12/31 04:53:14;;;;;;;25.73;8.82;;;-1.60;99.90;;;;;;5039318;28;20036;-91
2020/12/31 04:55:44;;;;;;;18.70;6.95;;;-1.60;99.90;;;;;;5057247;28;20033;-92
2020/12/31 04:58:15;;;;;;;21.98;7.82;;;-1.60;99.90;;;;;;5039131;28;20075;-92
2020/12/31 05:00:41;;;;;;;;;;;-1.50;99.90;;;;;;5039581;28;20020;-91
2020/12/31 05:03:08;;;;;;;30.60;11.13;;;-1.40;99.90;;;;;;5038721;28;19912;-91
2020/12/31 05:05:35;;;;;;;32.38;13.80;;;-1.40;99.90;;;;;;5038542;28;20028;-91
2020/12/31 05:08:02;;;;;;;39.60;13.95;;;-1.20;99.90;;;;;;5038615;28;20367;-93
2020/12/31 05:10:29;;;;;;;42.90;14.65;;;-1.10;99.90;;;;;;5038396;28;20033;-92
2020/12/31 05:13:07;;;;;;;42.85;13.90;;;-1.00;99.90;;;;;;5038712;28;20025;-92
2020/12/31 05:15:39;;;;;;;40.63;14.73;;;-0.90;99.90;;;;;;5056275;28;20033;-91
2020/12/31 05:18:21;;;;;;;36.03;13.32;;;-0.80;99.90;;;;;;5038271;28;20029;-91
2020/12/31 05:20:57;;;;;;;32.17;12.90;;;-0.80;99.90;;;;;;5038291;28;20021;-93
2020/12/31 05:23:24;;;;;;;28.70;11.50;;;-0.70;99.90;;;;;;5037828;28;20198;-92
2020/12/31 05:25:50;;;;;;;25.13;10.10;;;-0.70;99.90;;;;;;5038481;28;20486;-93
2020/12/31 05:28:32;;;;;;;31.67;10.48;;;-0.60;99.90;;;;;;5038110;28;20032;-91
2020/12/31 05:31:07;;;;;;;29.48;9.88;;;-0.60;99.90;;;;;;5037985;28;20111;-93
2020/12/31 05:33:34;;;;;;;32.95;9.77;;;-0.60;99.90;;;;;;5038036;28;20053;-92
2020/12/31 05:36:25;;;;;;;22.80;8.88;;;-0.50;99.90;;;;;;5037889;28;20378;-91
2020/12/31 05:38:56;;;;;;;;;;;-0.40;99.90;;;;;;5029218;28;20551;-91
2020/12/31 05:41:23;;;;;;;19.30;7.60;;;-0.40;99.90;;;;;;5038194;28;19909;-90
2020/12/31 05:43:54;;;;;;;20.60;9.32;;;-0.30;99.90;;;;;;5037771;28;20079;-92
2020/12/31 05:46:20;;;;;;;27.15;9.05;;;-0.30;99.90;;;;;;5038262;28;20029;-94
2020/12/31 05:49:04;;;;;;;20.20;8.65;;;-0.30;99.90;;;;;;5055522;28;20033;-92
2020/12/31 05:51:33;;;;;;;23.77;8.38;;;-0.30;99.90;;;;;;5037946;28;20573;-92
2020/12/31 05:54:10;;;;;;;22.73;8.77;;;-0.30;99.90;;;;;;5037581;28;20022;-92
2020/12/31 05:56:42;;;;;;;27.30;9.70;;;-0.30;99.90;;;;;;5037914;28;20036;-92
2020/12/31 05:59:28;;;;;;;23.88;10.32;;;-0.40;99.90;;;;;;5037798;28;20394;-92
2020/12/31 06:02:01;;;;;;;22.05;8.27;;;-0.30;99.90;;;;;;5037554;28;20029;-92
2020/12/31 06:04:29;;;;;;;23.58;8.90;;;-0.30;99.90;;;;;;5038889;28;20071;-91
2020/12/31 06:07:01;;;;;;;27.30;9.82;;;-0.40;99.90;;;;;;5040913;28;20017;-93
2020/12/31 06:09:31;;;;;;;19.98;7.47;;;-0.40;99.90;;;;;;5038393;28;20033;-91
2020/12/31 06:12:03;;;;;;;25.60;8.43;;;-0.40;99.90;;;;;;5038090;28;20041;-92
2020/12/31 06:14:31;;;;;;;20.40;7.88;;;-0.40;99.90;;;;;;5038560;28;20033;-93
2020/12/31 06:17:02;;;;;;;17.65;7.60;;;-0.50;99.90;;;;;;5038596;28;20486;-93
2020/12/31 06:19:29;;;;;;;;;;;-0.50;99.90;;;;;;5038388;28;20033;-93
2020/12/31 06:22:01;;;;;;;17.48;7.00;;;-0.60;99.90;;;;;;5021999;28;20286;-91
2020/12/31 06:24:42;;;;;;;17.83;7.20;;;-0.60;99.90;;;;;;5017999;28;20026;-93
2020/12/31 06:27:17;;;;;;;19.50;8.00;;;-0.60;99.90;;;;;;5018644;28;20037;-92
2020/12/31 06:29:45;;;;;;;21.17;7.65;;;-0.70;99.90;;;;;;5036095;28;20029;-92
2020/12/31 06:32:36;;;;;;;17.42;7.45;;;-0.70;99.90;;;;;;5018571;28;20049;-92
2020/12/31 06:35:03;;;;;;;14.98;6.28;;;-0.70;99.90;;;;;;5057429;28;20017;-91
2020/12/31 06:37:29;;;;;;;13.02;6.35;;;-0.80;99.90;;;;;;5028825;28;20025;-93
2020/12/31 06:40:28;;;;;;;16.80;7.47;;;-0.80;99.90;;;;;;5026965;28;20024;-94
2020/12/31 06:43:04;;;;;;;17.58;7.18;;;-0.80;99.90;;;;;;5026685;28;20091;-91
2020/12/31 06:45:42;;;;;;;17.17;7.15;;;-0.80;99.90;;;;;;5028398;28;20029;-91
2020/12/31 06:48:26;;;;;;;20.48;8.73;;;-0.90;99.90;;;;;;5026878;28;20112;-91
2020/12/31 06:51:03;;;;;;;15.93;6.57;;;-0.90;99.90;;;;;;5027246;28;20029;-91
2020/12/31 06:53:39;;;;;;;15.65;7.13;;;-0.90;99.90;;;;;;5029436;28;20021;-92
2020/12/31 06:56:13;;;;;;;19.75;7.10;;;-1.00;99.90;;;;;;5032838;28;20032;-92
2020/12/31 06:58:40;;;;;;;14.65;6.45;;;-1.00;99.90;;;;;;5030070;28;20367;-92
2020/12/31 07:01:25;;;;;;;13.75;5.97;;;-1.00;99.90;;;;;;5012566;28;20033;-92
2020/12/31 07:03:56;;;;;;;16.20;7.18;;;-1.10;99.90;;;;;;5030325;28;20123;-93
2020/12/31 07:06:22;;;;;;;16.55;6.65;;;-1.10;99.90;;;;;;5027825;28;20025;-91
2020/12/31 07:08:55;;;;;;;16.33;7.10;;;-1.10;99.90;;;;;;5040862;28;20024;-91
2020/12/31 07:11:37;;;;;;;17.10;6.72;;;-1.20;99.90;;;;;;5047456;28;20029;-91
2020/12/31 07:14:22;;;;;;;17.05;6.78;;;-1.20;99.90;;;;;;5048584;28;20021;-90
2020/12/31 07:16:54;;;;;;;14.63;6.07;;;-1.20;99.90;;;;;;5056078;28;20048;-89
2020/12/31 07:19:38;;;;;;;16.38;7.07;;;-1.20;99.90;;;;;;5043835;28;20028;-91
2020/12/31 07:22:13;;;;;;;16.42;6.38;;;-1.30;99.90;;;;;;5044172;28;20057;-91
2020/12/31 07:25:10;;;;;;;18.90;6.80;;;-1.30;99.90;;;;;;5027858;28;20037;-91
2020/12/31 07:27:38;;;;;;;15.48;6.25;;;-1.30;99.90;;;;;;5042168;28;20025;-92
2020/12/31 07:30:11;;;;;;;14.93;5.45;;;-1.40;99.90;;;;;;5034167;28;20039;-92
2020/12/31 07:33:02;;;;;;;13.48;5.88;;;-1.40;99.90;;;;;;5026479;28;20041;-91
2020/12/31 07:35:40;;;;;;;20.15;6.10;;;-1.40;99.90;;;;;;5039554;28;20382;-92
2020/12/31 07:38:17;;;;;;;13.25;5.80;;;-1.40;99.90;;;;;;5048210;28;20151;-91
2020/12/31 07:40:50;;;;;;;15.20;5.15;;;-1.40;99.90;;;;;;5020302;28;20541;-92
2020/12/31 07:43:23;;;;;;;17.98;6.22;;;-1.40;99.90;;;;;;5020628;28;20033;-91
2020/12/31 07:45:52;;;;;;;21.75;7.03;;;-1.50;99.90;;;;;;5031988;28;20021;-91
2020/12/31 07:48:19;;;;;;;21.15;7.95;;;-1.40;99.90;;;;;;5026376;28;20032;-90
2020/12/31 07:50:45;;;;;;;16.38;6.68;;;-1.40;99.90;;;;;;5028857;28;20494;-89
2020/12/31 07:53:13;;;;;;;19.20;6.03;;;-1.40;99.90;;;;;;5026433;28;20433;-89
2020/12/31 07:55:51;;;;;;;17.90;7.03;;;-1.30;99.90;;;;;;5026822;28;20034;-90
2020/12/31 07:58:22;;;;;;;15.52;6.82;;;-1.30;99.90;;;;;;5033721;28;20447;-90
2020/12/31 08:01:02;;;;;;;33.03;10.60;;;-1.30;99.90;;;;;;5034743;28;20017;-90
2020/12/31 08:03:27;;;;;;;13.23;4.85;;;-1.30;99.90;;;;;;5041239;28;20040;-93
2020/12/31 08:06:04;;;;;;;23.60;7.30;;;-1.30;99.90;;;;;;5042622;28;20021;-92
2020/12/31 08:08:30;;;;;;;25.30;8.50;;;-1.30;99.90;;;;;;5038794;28;20029;-91
2020/12/31 08:10:56;;;;;;;13.88;5.53;;;-1.20;99.90;;;;;;5036306;28;20025;-92
2020/12/31 08:13:22;;;;;;;20.77;6.35;;;-1.20;99.90;;;;;;5034638;28;20051;-91
2020/12/31 08:15:54;;;;;;;15.45;6.93;;;-1.20;99.90;;;;;;5046468;28;20470;-93
2020/12/31 08:18:21;;;;;;;21.08;8.07;;;-1.10;99.90;;;;;;5038705;28;20044;-92
2020/12/31 08:20:49;;;;;;;24.30;8.57;;;-1.10;99.90;;;;;;5037512;28;20022;-92
2020/12/31 08:23:21;;;;;;;26.02;8.73;;;-1.10;99.90;;;;;;5038943;28;20036;-91
2020/12/31 08:25:49;;;;;;;17.98;6.80;;;-1.10;99.90;;;;;;5040983;28;20471;-90
2020/12/31 08:28:20;;;;;;;19.13;7.45;;;-1.00;99.90;;;;;;5039236;28;20056;-93
2020/12/31 08:30:46;;;;;;;17.05;6.47;;;-1.00;99.90;;;;;;5039809;28;20104;-91
2020/12/31 08:33:26;;;;;;;18.30;6.88;;;-1.00;99.90;;;;;;5087687;27;1227645;-92
2020/12/31 08:35:53;;;;;;;18.13;6.45;;;-0.90;99.90;;;;;;5103787;28;20027;-93
2020/12/31 08:38:23;;;;;;;26.95;10.13;;;-0.90;99.90;;;;;;5107269;28;20020;-93
2020/12/31 08:40:54;;;;;;;25.23;8.98;;;-0.80;99.90;;;;;;5084066;28;20019;-91
2020/12/31 08:43:31;;;;;;;24.13;9.02;;;-0.80;99.90;;;;;;5091387;28;20036;-93
2020/12/31 08:45:57;;;;;;;31.50;10.93;;;-0.80;99.90;;;;;;5090980;28;20024;-92
2020/12/31 08:48:34;;;;;;;41.03;12.15;;;-0.70;99.90;;;;;;5093369;28;20055;-92
2020/12/31 08:51:08;;;;;;;32.17;11.23;;;-0.70;99.90;;;;;;5078405;28;20020;-92
2020/12/31 08:53:51;;;;;;;25.70;9.07;;;-0.70;99.90;;;;;;5055528;28;20024;-92
2020/12/31 08:56:21;;;;;;;32.78;11.90;;;-0.70;99.90;;;;;;5072084;28;20020;-92
2020/12/31 08:58:47;;;;;;;35.67;11.88;;;-0.60;99.90;;;;;;5072672;28;20481;-92
2020/12/31 09:01:30;;;;;;;38.15;12.32;;;-0.60;99.90;;;;;;5089184;28;20016;-92
2020/12/31 09:04:08;;;;;;;33.90;9.45;;;-0.50;99.90;;;;;;5089312;28;20027;-93
2020/12/31 09:06:42;;;;;;;33.95;11.40;;;-0.50;99.90;;;;;;5106956;28;20016;-92
2020/12/31 09:09:22;;;;;;;35.33;13.15;;;-0.40;99.90;;;;;;5088889;28;20032;-93
2020/12/31 09:11:57;;;;;;;37.42;13.25;;;-0.30;99.90;;;;;;5083650;28;20047;-91
2020/12/31 09:14:24;;;;;;;35.85;12.80;;;-0.20;99.90;;;;;;5068804;28;20431;-91
2020/12/31 09:16:50;;;;;;;36.70;13.15;;;-0.10;99.90;;;;;;5067488;28;20082;-91
2020/12/31 09:19:16;;;;;;;32.92;12.18;;;-0.10;99.90;;;;;;5052863;28;20058;-93
2020/12/31 09:21:42;;;;;;;31.50;10.95;;;0.00;99.90;;;;;;5064757;28;20047;-92
2020/12/31 09:24:16;;;;;;;41.70;14.63;;;0.00;99.90;;;;;;5059830;28;20222;-93
2020/12/31 09:26:54;;;;;;;42.13;13.80;;;0.10;99.90;;;;;;5083591;28;20028;-93
2020/12/31 09:29:20;;;;;;;42.17;15.10;;;0.20;99.90;;;;;;5088252;28;20028;-93
2020/12/31 09:31:47;;;;;;;27.60;10.93;;;0.30;99.90;;;;;;5068708;28;20032;-92
2020/12/31 09:34:13;;;;;;;36.53;11.95;;;0.30;99.90;;;;;;5069543;28;20044;-91
2020/12/31 09:36:39;;;;;;;39.17;13.07;;;0.50;99.90;;;;;;5068244;28;20037;-92
2020/12/31 09:39:05;;;;;;;42.22;13.13;;;0.60;99.90;;;;;;5071743;28;20028;-92
2020/12/31 09:41:31;;;;;;;33.00;12.25;;;0.80;99.90;;;;;;5073385;28;20050;-92
2020/12/31 09:43:56;;;;;;;33.38;11.90;;;0.90;99.90;;;;;;5072691;28;20036;-92
2020/12/31 09:46:24;;;;;;;28.48;10.82;;;1.00;99.90;;;;;;5050001;28;20024;-92
2020/12/31 09:48:50;;;;;;;32.00;12.10;;;1.00;99.90;;;;;;5054832;28;20157;-92
2020/12/31 09:51:17;;;;;;;28.40;10.43;;;1.10;99.90;;;;;;5072763;28;20033;-91
2020/12/31 09:53:42;;;;;;;29.85;11.85;;;1.10;99.90;;;;;;5071554;28;20101;-94
2020/12/31 09:56:10;;;;;;;32.22;11.55;;;1.10;99.90;;;;;;5055638;28;20017;-93
2020/12/31 09:58:36;;;;;;;25.95;10.70;;;1.20;99.90;;;;;;5047558;28;20025;-93
2020/12/31 10:01:03;;;;;;;25.20;11.95;;;1.30;99.90;;;;;;5045948;28;20035;-93
2020/12/31 10:03:28;;;;;;;24.95;10.73;;;1.30;99.90;;;;;;5058555;28;20056;-93
2020/12/31 10:05:54;;;;;;;26.95;10.68;;;1.40;99.90;;;;;;5045204;28;20014;-93
2020/12/31 10:08:20;;;;;;;26.20;10.50;;;1.40;99.90;;;;;;5047371;28;20029;-93
2020/12/31 10:10:46;;;;;;;26.58;10.32;;;1.40;99.90;;;;;;5047610;28;20024;-94
2020/12/31 10:13:12;;;;;;;23.35;10.23;;;1.40;99.90;;;;;;5067830;28;20568;-94
2020/12/31 10:15:37;;;;;;;25.88;10.43;;;1.40;99.90;;;;;;5046585;28;20556;-94
2020/12/31 10:18:04;;;;;;;26.67;10.27;;;1.40;99.90;;;;;;5062503;28;20039;-95
2020/12/31 10:20:30;;;;;;;23.67;10.23;;;1.30;99.90;;;;;;5045458;28;20032;-93
2020/12/31 10:22:55;;;;;;;25.35;10.30;;;1.30;99.90;;;;;;5049524;28;20055;-93
2020/12/31 10:25:21;;;;;;;23.85;10.13;;;1.30;99.90;;;;;;5081312;28;20028;-93
2020/12/31 10:27:47;;;;;;;25.85;9.77;;;1.30;99.90;;;;;;5054705;28;20032;-93
2020/12/31 10:30:13;;;;;;;23.27;9.25;;;1.30;99.90;;;;;;5042830;28;20047;-92
2020/12/31 10:32:38;;;;;;;25.75;10.98;;;1.30;99.90;;;;;;5053619;28;20044;-94
2020/12/31 10:35:04;;;;;;;22.05;9.38;;;1.30;99.90;;;;;;5043810;28;20124;-94
2020/12/31 10:37:32;;;;;;;25.48;9.48;;;1.30;99.90;;;;;;5054930;28;20037;-94
2020/12/31 10:39:57;;;;;;;23.27;9.27;;;1.30;99.90;;;;;;5039911;28;20055;-93
2020/12/31 10:42:23;;;;;;;25.38;9.98;;;1.30;99.90;;;;;;5043581;28;20025;-94
2020/12/31 10:44:49;;;;;;;23.38;9.35;;;1.30;99.90;;;;;;5045119;28;20021;-92
2020/12/31 10:47:17;;;;;;;20.90;8.98;;;1.30;99.90;;;;;;5039888;28;20028;-91
2020/12/31 10:49:43;;;;;;;18.27;8.25;;;1.30;99.90;;;;;;5042886;28;20021;-94
2020/12/31 10:52:08;;;;;;;21.98;8.82;;;1.30;99.90;;;;;;5042894;28;20052;-92
2020/12/31 10:54:34;;;;;;;20.95;8.50;;;1.30;99.90;;;;;;5048957;28;20604;-94
2020/12/31 10:57:00;;;;;;;19.55;8.15;;;1.30;99.90;;;;;;5045012;28;20052;-94
2020/12/31 10:59:25;;;;;;;19.15;8.45;;;1.40;99.90;;;;;;5043964;28;20025;-95
2020/12/31 11:01:54;;;;;;;20.63;8.98;;;1.40;99.90;;;;;;5049273;28;20025;-93
2020/12/31 11:04:21;;;;;;;15.48;7.40;;;1.50;99.90;;;;;;5049982;28;20021;-94
2020/12/31 11:06:48;;;;;;;18.67;7.90;;;1.50;99.90;;;;;;5070437;28;20087;-94
2020/12/31 11:09:14;;;;;;;19.08;7.55;;;1.70;99.90;;;;;;5063025;28;20096;-94
2020/12/31 11:11:40;;;;;;;14.45;6.75;;;2.20;99.90;;;;;;5070219;28;20027;-92
2020/12/31 11:14:08;;;;;;;13.95;6.63;;;2.80;99.90;;;;;;5052560;28;20032;-95
2020/12/31 11:16:34;;;;;;;16.67;8.02;;;3.20;99.90;;;;;;5055081;28;20016;-95
2020/12/31 11:18:59;;;;;;;17.42;7.25;;;3.70;99.90;;;;;;5065276;28;20021;-94
2020/12/31 11:21:25;;;;;;;21.00;8.25;;;4.20;99.90;;;;;;5057081;28;20054;-92
2020/12/31 11:23:52;;;;;;;25.38;12.48;;;4.30;99.90;;;;;;5056403;28;20492;-93
2020/12/31 11:26:20;;;;;;;11.30;5.22;;;4.20;99.90;;;;;;5057321;28;20497;-93
2020/12/31 11:28:48;;;;;;;33.90;16.60;;;4.10;99.90;;;;;;5063759;28;20035;-94
2020/12/31 11:31:14;;;;;;;19.60;9.93;;;3.90;99.90;;;;;;5066525;28;20055;-95
2020/12/31 11:33:43;;;;;;;23.90;11.40;;;3.70;99.90;;;;;;5059614;28;20033;-93
2020/12/31 11:36:10;;;;;;;21.83;10.20;;;3.60;99.90;;;;;;5070017;28;20013;-92
2020/12/31 11:38:36;;;;;;;20.38;9.98;;;3.50;99.90;;;;;;5069428;28;20021;-94
2020/12/31 11:41:04;;;;;;;18.73;11.02;;;3.40;99.90;;;;;;5063694;28;20039;-94
2020/12/31 11:43:29;;;;;;;17.08;9.48;;;3.20;99.90;;;;;;5063837;28;20032;-95
2020/12/31 11:45:55;;;;;;;15.27;7.97;;;3.20;99.90;;;;;;5064311;28;20032;-94
2020/12/31 11:48:41;;;;;;;13.93;6.47;;;3.30;99.90;;;;;;5054951;28;20029;-95
2020/12/31 11:51:11;;;;;;;10.90;5.07;;;3.40;99.90;;;;;;5056423;28;20097;-94
2020/12/31 11:53:41;;;;;;;12.45;6.28;;;3.60;99.90;;;;;;5063023;28;20021;-95
2020/12/31 11:56:07;;;;;;;9.48;4.63;;;3.70;99.90;;;;;;5071126;28;20197;-95
2020/12/31 11:58:33;;;;;;;26.13;13.85;;;4.00;99.90;;;;;;5053615;28;20033;-94
2020/12/31 12:00:59;;;;;;;15.70;8.98;;;4.40;99.90;;;;;;5075763;28;20043;-96
2020/12/31 12:03:25;;;;;;;8.52;4.50;;;5.10;99.90;;;;;;5035647;28;20037;-95
2020/12/31 12:05:51;;;;;;;175.93;102.07;;;5.80;99.90;;;;;;5063378;28;20020;-95
2020/12/31 12:08:17;;;;;;;26.63;15.82;;;6.50;99.90;;;;;;5060064;28;20483;-94
2020/12/31 12:10:46;;;;;;;7.85;4.18;;;6.70;99.90;;;;;;5046092;28;20108;-95
2020/12/31 12:13:12;;;;;;;11.90;5.97;;;6.50;99.90;;;;;;5048717;28;20033;-95
2020/12/31 12:15:41;;;;;;;8.63;4.97;;;6.20;99.90;;;;;;5055317;28;20025;-96
2020/12/31 12:18:06;;;;;;;7.22;2.58;;;5.70;99.90;;;;;;5057016;28;20493;-95
2020/12/31 12:20:32;;;;;;;9.93;3.28;;;5.30;99.90;;;;;;5055534;28;20029;-95
2020/12/31 12:22:58;;;;;;;10.20;4.28;;;5.00;99.90;;;;;;5051686;28;20025;-95
2020/12/31 12:25:23;;;;;;;6.13;3.63;;;4.80;99.90;;;;;;5050131;28;20033;-95
2020/12/31 12:27:49;;;;;;;9.60;4.50;;;4.70;99.90;;;;;;5064684;28;20025;-96
2020/12/31 12:30:15;;;;;;;7.03;3.08;;;4.90;99.90;;;;;;5055196;28;20038;-96
2020/12/31 12:32:41;;;;;;;9.95;3.80;;;5.00;99.90;;;;;;5045415;28;20063;-95
2020/12/31 12:35:08;;;;;;;13.13;5.25;;;5.10;99.90;;;;;;5071660;28;20099;-92
2020/12/31 12:37:35;;;;;;;15.30;5.60;;;5.40;99.90;;;;;;5070110;28;20089;-92
2020/12/31 12:40:03;;;;;;;14.32;4.95;;;5.80;99.90;;;;;;5079761;28;20028;-93
2020/12/31 12:42:32;;;;;;;14.25;7.50;;;6.10;99.90;;;;;;5089429;28;20024;-92
2020/12/31 12:44:57;;;;;;;27.40;16.20;;;6.10;99.90;;;;;;5073320;28;20021;-90
2020/12/31 12:47:23;;;;;;;14.85;8.27;;;5.80;99.90;;;;;;5078442;28;20041;-91